createdAt,value
2024-03-16T00:01:59.655Z,100252.97
2024-03-16T00:04:27.695Z,100252.97
2024-03-16T00:06:57.141Z,100246.81
2024-03-16T00:09:25.918Z,100245.94
2024-03-16T00:11:54.641Z,100257.41
2024-03-16T00:14:22.590Z,100260.06
2024-03-16T00:16:50.697Z,100252.97
2024-03-16T00:19:19.472Z,100258.28
2024-03-16T00:21:47.856Z,100246.81
2024-03-16T00:24:16.458Z,100257.41
2024-03-16T00:26:44.615Z,100254.75
2024-03-16T00:29:12.759Z,100261.78
2024-03-16T00:31:41.065Z,100262.63
2024-03-16T00:34:09.790Z,100259.06
2024-03-16T00:36:38.265Z,100259.91
2024-03-16T00:39:16.199Z,100267.84
2024-03-16T00:41:44.563Z,100260.75
2024-03-16T00:44:13.001Z,100253.69
2024-03-16T00:46:40.956Z,100258.09
2024-03-16T00:49:09.547Z,100250.16
2024-03-16T00:51:37.587Z,100258.09
2024-03-16T00:54:05.551Z,100262.47
2024-03-16T00:56:33.516Z,100258.94
2024-03-16T00:59:01.680Z,100258.06
2024-03-16T01:01:35.004Z,100255.38
2024-03-16T01:04:03.845Z,100254.50
2024-03-16T01:06:31.928Z,100266.88
2024-03-16T01:09:00.195Z,100259.78
2024-03-16T01:11:28.757Z,100256.22
2024-03-16T01:13:56.771Z,100259.78
2024-03-16T01:16:24.750Z,100265.09
2024-03-16T01:18:52.812Z,100265.94
2024-03-16T01:21:21.322Z,100271.25
2024-03-16T01:23:49.810Z,100261.53
2024-03-16T01:26:17.866Z,100262.44
2024-03-16T01:28:46.729Z,100262.44
2024-03-16T01:31:15.335Z,100249.16
2024-03-16T01:33:43.529Z,100250.91
2024-03-16T01:36:11.625Z,100253.56
2024-03-16T01:38:39.779Z,100254.47
2024-03-16T01:41:07.745Z,100258.00
2024-03-16T01:43:36.000Z,100246.50
2024-03-16T01:46:04.029Z,100258.00
2024-03-16T01:48:32.558Z,100253.56
2024-03-16T01:51:01.150Z,100251.81
2024-03-16T01:53:29.105Z,100250.06
2024-03-16T01:55:57.050Z,100248.31
2024-03-16T01:58:25.120Z,100256.28
2024-03-16T02:00:54.676Z,100266.03
2024-03-16T02:03:23.311Z,100262.53
2024-03-16T02:05:51.329Z,100255.47
2024-03-16T02:08:19.310Z,100259.91
2024-03-16T02:10:47.391Z,100258.19
2024-03-16T02:13:15.596Z,100265.25
2024-03-16T02:15:43.772Z,100259.97
2024-03-16T02:18:12.166Z,100264.41
2024-03-16T02:20:40.192Z,100261.78
2024-03-16T02:23:08.121Z,100265.34
2024-03-16T02:25:36.561Z,100267.13
2024-03-16T02:28:04.760Z,100266.28
2024-03-16T02:30:32.966Z,100273.38
2024-03-16T02:33:01.471Z,100277.81
2024-03-16T02:35:28.514Z,100276.03
2024-03-16T02:37:56.429Z,100269.88
2024-03-16T02:40:24.386Z,100275.16
2024-03-16T02:42:52.360Z,100276.94
2024-03-16T02:45:20.348Z,100276.94
2024-03-16T02:47:48.301Z,100281.38
2024-03-16T02:50:16.292Z,100272.56
2024-03-16T02:52:44.310Z,100277.84
2024-03-16T02:55:12.817Z,100280.50
2024-03-16T02:57:40.918Z,100292.00
2024-03-16T03:00:12.425Z,100288.47
2024-03-16T03:02:40.820Z,100285.84
2024-03-16T03:05:12.572Z,100276.16
2024-03-16T03:07:41.385Z,100278.78
2024-03-16T03:10:10.166Z,100285.00
2024-03-16T03:12:40.187Z,100286.75
2024-03-16T03:15:10.399Z,100286.75
2024-03-16T03:17:38.637Z,100287.66
2024-03-16T03:20:10.212Z,100298.25
2024-03-16T03:22:38.550Z,100290.25
2024-03-16T03:25:06.922Z,100290.25
2024-03-16T03:27:36.213Z,100297.31
2024-03-16T03:30:05.220Z,100304.38
2024-03-16T03:32:34.117Z,100300.84
2024-03-16T03:35:02.764Z,100299.94
2024-03-16T03:37:30.699Z,100305.25
2024-03-16T03:39:59.128Z,100301.69
2024-03-16T03:42:30.387Z,100308.75
2024-03-16T03:45:12.362Z,100307.88
2024-03-16T03:47:51.538Z,100296.41
2024-03-16T03:50:27.776Z,100315.78
2024-03-16T03:52:56.992Z,100305.25
2024-03-16T03:55:24.978Z,100304.31
2024-03-16T03:57:55.425Z,100296.38
2024-03-16T04:00:23.968Z,100303.44
2024-03-16T04:02:52.146Z,100303.44
2024-03-16T04:05:20.040Z,100302.56
2024-03-16T04:07:47.982Z,100305.19
2024-03-16T04:10:16.257Z,100299.03
2024-03-16T04:12:44.326Z,100296.38
2024-03-16T04:15:12.338Z,100294.63
2024-03-16T04:17:39.361Z,100296.38
2024-03-16T04:20:11.556Z,100296.38
2024-03-16T04:22:39.609Z,100296.38
2024-03-16T04:25:10.155Z,100301.66
2024-03-16T04:27:38.392Z,100301.66
2024-03-16T04:30:07.547Z,100303.41
2024-03-16T04:32:36.289Z,100308.69
2024-03-16T04:35:05.890Z,100314.88
2024-03-16T04:37:34.864Z,100307.84
2024-03-16T04:40:05.089Z,100308.72
2024-03-16T04:42:33.438Z,100308.72
2024-03-16T04:45:01.910Z,100310.47
2024-03-16T04:47:30.012Z,100304.31
2024-03-16T04:49:58.620Z,100303.44
2024-03-16T04:52:26.571Z,100303.44
2024-03-16T04:54:54.593Z,100304.31
2024-03-16T04:57:23.408Z,100309.63
2024-03-16T04:59:51.395Z,100311.34
2024-03-16T05:02:19.378Z,100310.50
2024-03-16T05:04:47.341Z,100311.38
2024-03-16T05:07:15.404Z,100314.91
2024-03-16T05:09:43.503Z,100309.63
2024-03-16T05:12:11.496Z,100309.63
2024-03-16T05:14:39.479Z,100314.00
2024-03-16T05:17:07.488Z,100323.72
2024-03-16T05:19:35.390Z,100322.84
2024-03-16T05:22:06.632Z,100325.47
2024-03-16T05:24:34.883Z,100326.34
2024-03-16T05:27:03.307Z,100321.03
2024-03-16T05:29:31.246Z,100328.09
2024-03-16T05:31:59.913Z,100334.28
2024-03-16T05:34:27.820Z,100328.09
2024-03-16T05:36:55.832Z,100336.03
2024-03-16T05:39:23.759Z,100333.38
2024-03-16T05:41:51.748Z,100330.75
2024-03-16T05:44:19.734Z,100338.69
2024-03-16T05:46:47.683Z,100333.41
2024-03-16T05:49:16.090Z,100339.56
2024-03-16T05:51:44.408Z,100340.44
2024-03-16T05:54:12.939Z,100351.03
2024-03-16T05:56:41.044Z,100342.25
2024-03-16T05:59:10.665Z,100344.88
2024-03-16T06:01:39.069Z,100349.31
2024-03-16T06:04:07.456Z,100351.94
2024-03-16T06:06:35.535Z,100349.31
2024-03-16T06:09:06.702Z,100350.22
2024-03-16T06:11:37.200Z,100353.72
2024-03-16T06:14:05.727Z,100350.22
2024-03-16T06:16:33.832Z,100350.25
2024-03-16T06:19:01.890Z,100353.78
2024-03-16T06:21:30.249Z,100350.25
2024-03-16T06:23:58.281Z,100351.13
2024-03-16T06:26:29.427Z,100346.75
2024-03-16T06:29:06.423Z,100360.88
2024-03-16T06:31:36.761Z,100352.03
2024-03-16T06:34:06.410Z,100362.63
2024-03-16T06:36:34.905Z,100360.84
2024-03-16T06:39:07.215Z,100362.63
2024-03-16T06:41:35.374Z,100365.25
2024-03-16T06:44:03.843Z,100361.75
2024-03-16T06:46:33.425Z,100359.09
2024-03-16T06:49:07.172Z,100366.16
2024-03-16T06:51:36.112Z,100354.66
2024-03-16T06:54:05.068Z,100359.97
2024-03-16T06:56:33.096Z,100367.03
2024-03-16T06:59:01.831Z,100367.00
2024-03-16T07:01:30.049Z,100364.34
2024-03-16T07:03:58.288Z,100369.66
2024-03-16T07:06:26.240Z,100376.69
2024-03-16T07:08:54.209Z,100383.78
2024-03-16T07:11:22.242Z,100384.66
2024-03-16T07:13:50.228Z,100387.28
2024-03-16T07:16:18.215Z,100386.38
2024-03-16T07:18:46.315Z,100381.97
2024-03-16T07:21:16.912Z,100391.66
2024-03-16T07:23:48.228Z,100391.66
2024-03-16T07:26:16.602Z,100399.56
2024-03-16T07:28:47.812Z,100403.94
2024-03-16T07:31:15.855Z,100405.66
2024-03-16T07:33:43.949Z,100412.63
2024-03-16T07:36:11.957Z,100406.38
2024-03-16T07:38:39.933Z,100412.50
2024-03-16T07:41:09.364Z,100418.66
2024-03-16T07:43:37.384Z,100416.81
2024-03-16T07:46:06.738Z,100410.56
2024-03-16T07:48:36.945Z,100419.38
2024-03-16T07:51:05.864Z,100422.88
2024-03-16T07:53:33.881Z,100421.03
2024-03-16T07:56:01.941Z,100426.22
2024-03-16T07:58:29.968Z,100427.03
2024-03-16T08:00:57.970Z,100435.78
2024-03-16T08:03:26.989Z,100440.13
2024-03-16T08:05:55.622Z,100431.25
2024-03-16T08:08:24.473Z,100444.53
2024-03-16T08:10:55.152Z,100448.03
2024-03-16T08:13:24.281Z,100447.16
2024-03-16T08:15:53.400Z,100454.22
2024-03-16T08:18:21.725Z,100454.22
2024-03-16T08:20:49.664Z,100456.00
2024-03-16T08:23:20.112Z,100458.63
2024-03-16T08:25:49.995Z,100462.16
2024-03-16T08:28:18.066Z,100458.56
2024-03-16T08:30:46.188Z,100463.88
2024-03-16T08:33:14.440Z,100468.28
2024-03-16T08:35:42.708Z,100459.34
2024-03-16T08:38:10.695Z,100469.06
2024-03-16T08:40:38.842Z,100468.16
2024-03-16T08:43:08.690Z,100477.84
2024-03-16T08:45:37.261Z,100471.66
2024-03-16T08:48:06.060Z,100475.16
2024-03-16T08:50:34.352Z,100481.34
2024-03-16T08:53:02.354Z,100479.59
2024-03-16T08:55:30.404Z,100470.69
2024-03-16T08:57:58.542Z,100476.84
2024-03-16T09:00:26.796Z,100481.22
2024-03-16T09:02:54.781Z,100485.63
2024-03-16T09:05:23.117Z,100487.34
2024-03-16T09:07:51.137Z,100489.94
2024-03-16T09:10:19.589Z,100488.13
2024-03-16T09:12:48.238Z,100497.00
2024-03-16T09:15:17.461Z,100487.25
2024-03-16T09:17:45.538Z,100493.44
2024-03-16T09:20:14.871Z,100478.31
2024-03-16T09:22:43.314Z,100501.31
2024-03-16T09:25:12.724Z,100505.69
2024-03-16T09:27:41.241Z,100497.63
2024-03-16T09:30:12.735Z,100501.91
2024-03-16T09:32:41.851Z,100505.38
2024-03-16T09:35:11.923Z,100508.81
2024-03-16T09:37:40.276Z,100507.00
2024-03-16T09:40:11.751Z,100507.88
2024-03-16T09:42:40.407Z,100524.78
